Time;durP1;ratioP1;P1;durP2;ratioP2;P2;SDS_P1;SDS_P2;PMS_P1;PMS_P2;Temp;Humidity;BMP_temperature;BMP_pressure;BME280_temperature;BME280_humidity;BME280_pressure;Samples;Min_cycle;Max_cycle;Signal;HPM_P1;HPM_P2
2022/11/23 00:01:57;;;;;;;10.80;6.73;;;16.00;56.20;;;;;;5063239;28;20473;-80
2022/11/23 00:04:25;;;;;;;10.10;6.43;;;16.00;56.30;;;;;;5071269;28;20445;-81
2022/11/23 00:06:54;;;;;;;10.70;6.40;;;16.00;56.20;;;;;;5070603;28;20465;-81
2022/11/23 00:09:22;;;;;;;17.50;6.20;;;16.00;56.20;;;;;;5062024;28;20481;-81
2022/11/23 00:11:50;;;;;;;13.13;6.50;;;16.00;56.20;;;;;;5059682;28;20450;-81
2022/11/23 00:14:19;;;;;;;9.87;6.50;;;16.00;56.20;;;;;;5065871;28;20454;-81
2022/11/23 00:16:47;;;;;;;10.47;6.10;;;16.00;56.10;;;;;;5080123;28;20511;-81
2022/11/23 00:19:15;;;;;;;10.50;5.83;;;16.00;56.10;;;;;;5061895;28;20549;-81
2022/11/23 00:21:44;;;;;;;9.80;5.60;;;16.00;56.10;;;;;;5067665;28;20469;-81
2022/11/23 00:24:12;;;;;;;7.53;5.60;;;16.00;56.00;;;;;;5071011;28;20501;-81
2022/11/23 00:26:40;;;;;;;11.53;6.07;;;16.00;56.10;;;;;;5067298;28;20465;-81
2022/11/23 00:29:09;;;;;;;13.00;5.87;;;16.00;56.20;;;;;;5056265;28;20450;-81
2022/11/23 00:31:38;;;;;;;6.47;5.63;;;15.90;56.10;;;;;;5055352;28;20457;-81
2022/11/23 00:34:06;;;;;;;9.80;5.50;;;15.90;56.10;;;;;;5073924;28;20456;-81
2022/11/23 00:36:34;;;;;;;10.47;5.13;;;16.00;56.10;;;;;;5069467;28;20549;-80
2022/11/23 00:39:02;;;;;;;7.83;5.40;;;16.00;56.10;;;;;;5072626;28;20470;-79
2022/11/23 00:41:30;;;;;;;8.40;5.00;;;16.00;56.00;;;;;;5069230;28;20453;-79
2022/11/23 00:43:59;;;;;;;6.83;5.20;;;16.00;56.00;;;;;;5072088;28;20450;-78
2022/11/23 00:46:27;;;;;;;6.27;5.10;;;16.00;56.00;;;;;;5070965;28;20468;-78
2022/11/23 00:48:57;;;;;;;9.27;5.67;;;16.00;56.00;;;;;;5058980;28;20446;-80
2022/11/23 00:51:26;;;;;;;11.00;4.97;;;16.00;56.00;;;;;;5071134;28;20460;-80
2022/11/23 00:53:54;;;;;;;9.50;4.50;;;16.00;55.90;;;;;;5062507;28;20482;-80
2022/11/23 00:56:22;;;;;;;7.03;5.00;;;16.00;55.80;;;;;;5073598;28;20580;-80
2022/11/23 00:58:50;;;;;;;6.43;5.00;;;16.00;55.90;;;;;;5069523;28;20465;-80
2022/11/23 01:01:20;;;;;;;5.77;5.03;;;16.00;55.90;;;;;;5068284;28;20465;-79
2022/11/23 01:03:49;;;;;;;5.20;4.70;;;16.00;55.90;;;;;;5071122;28;20545;-80
2022/11/23 01:06:19;;;;;;;10.07;4.87;;;16.00;55.80;;;;;;5071895;28;20467;-80
2022/11/23 01:08:48;;;;;;;5.10;4.60;;;15.90;55.70;;;;;;5069173;28;20473;-80
2022/11/23 01:11:17;;;;;;;6.40;4.20;;;15.90;55.80;;;;;;5079213;28;20449;-80
2022/11/23 01:13:45;;;;;;;5.90;4.40;;;16.00;55.70;;;;;;5069720;28;20477;-80
2022/11/23 01:16:14;;;;;;;6.07;4.50;;;15.90;55.90;;;;;;5067086;28;20479;-80
2022/11/23 01:18:52;;;;;;;8.20;4.53;;;16.00;55.80;;;;;;5067723;28;20480;-80
2022/11/23 01:21:22;;;;;;;10.20;4.33;;;15.90;55.80;;;;;;5071882;28;20450;-80
2022/11/23 01:23:50;;;;;;;4.20;3.80;;;15.90;55.70;;;;;;5069637;28;20482;-80
2022/11/23 01:26:18;;;;;;;5.83;4.53;;;15.90;55.70;;;;;;5065321;28;20465;-80
2022/11/23 01:28:46;;;;;;;7.23;4.50;;;15.90;55.70;;;;;;5076624;28;20460;-80
2022/11/23 01:31:15;;;;;;;5.20;4.47;;;15.90;55.70;;;;;;5067493;28;20996;-80
2022/11/23 01:33:43;;;;;;;5.53;3.97;;;15.90;55.70;;;;;;5068846;28;20446;-79
2022/11/23 01:36:12;;;;;;;4.63;4.07;;;15.90;55.70;;;;;;5054517;28;20474;-80
2022/11/23 01:38:41;;;;;;;4.37;3.97;;;15.90;55.70;;;;;;5055237;28;20477;-80
2022/11/23 01:41:12;;;;;;;9.60;4.30;;;15.90;55.70;;;;;;5054755;28;20466;-80
2022/11/23 01:43:40;;;;;;;6.50;4.20;;;15.90;55.90;;;;;;5072659;28;20462;-80
2022/11/23 01:46:08;;;;;;;4.97;4.40;;;15.90;55.70;;;;;;5067141;28;20501;-80
2022/11/23 01:48:38;;;;;;;6.03;3.80;;;15.90;55.90;;;;;;5064380;28;20450;-79
2022/11/23 01:51:06;;;;;;;5.07;3.70;;;15.90;55.80;;;;;;5074145;28;20454;-80
2022/11/23 01:53:34;;;;;;;3.80;3.40;;;15.90;55.70;;;;;;5070667;28;20473;-80
2022/11/23 01:56:06;;;;;;;4.20;3.70;;;15.90;55.70;;;;;;5076959;28;20487;-81
2022/11/23 01:58:36;;;;;;;5.40;4.10;;;15.90;55.80;;;;;;5060493;28;20446;-80
2022/11/23 02:01:05;;;;;;;5.77;3.43;;;15.90;55.70;;;;;;5062249;28;20459;-79
2022/11/23 02:03:33;;;;;;;5.03;3.67;;;15.90;55.60;;;;;;5068607;28;20462;-78
2022/11/23 02:06:01;;;;;;;4.97;3.63;;;16.00;55.80;;;;;;5058728;28;20474;-80
2022/11/23 02:08:30;;;;;;;4.30;3.50;;;15.90;55.70;;;;;;5060485;28;20457;-80
2022/11/23 02:10:58;;;;;;;3.80;3.37;;;15.90;55.80;;;;;;5066184;28;20458;-80
2022/11/23 02:13:28;;;;;;;4.00;3.60;;;15.90;55.70;;;;;;5061189;28;20569;-81
2022/11/23 02:15:56;;;;;;;4.13;3.10;;;15.90;55.70;;;;;;5067247;28;20473;-81
2022/11/23 02:18:25;;;;;;;7.50;3.30;;;15.90;55.80;;;;;;5072505;28;20555;-81
2022/11/23 02:20:53;;;;;;;3.90;3.50;;;15.90;55.80;;;;;;5070133;28;20458;-81
2022/11/23 02:23:29;;;;;;;3.13;2.83;;;15.90;55.80;;;;;;5071653;28;20445;-80
2022/11/23 02:26:06;;;;;;;3.90;3.47;;;16.00;55.90;;;;;;5070732;28;20537;-80
2022/11/23 02:28:36;;;;;;;5.70;3.50;;;16.00;55.90;;;;;;5066728;28;20446;-80
2022/11/23 02:31:04;;;;;;;6.00;3.60;;;15.90;55.80;;;;;;5078058;28;20454;-80
2022/11/23 02:33:32;;;;;;;3.83;3.13;;;16.00;55.80;;;;;;5079086;28;20453;-80
2022/11/23 02:36:01;;;;;;;3.40;3.10;;;16.00;55.80;;;;;;5068966;28;20472;-81
2022/11/23 02:38:31;;;;;;;4.57;3.03;;;15.90;55.80;;;;;;5087242;28;20541;-81
2022/11/23 02:40:59;;;;;;;3.50;2.97;;;15.90;55.90;;;;;;5083304;28;20458;-81
2022/11/23 02:43:29;;;;;;;3.80;3.40;;;15.90;55.90;;;;;;5074593;28;20469;-81
2022/11/23 02:45:57;;;;;;;4.67;2.93;;;16.00;55.90;;;;;;5064332;28;20481;-80
2022/11/23 02:48:25;;;;;;;3.53;3.23;;;16.00;55.80;;;;;;5066819;28;20443;-80
2022/11/23 02:50:54;;;;;;;3.40;3.10;;;15.90;55.80;;;;;;5065304;28;20458;-80
2022/11/23 02:53:21;;;;;;;5.50;3.10;;;16.00;55.90;;;;;;5080180;28;20446;-83
2022/11/23 02:55:49;;;;;;;3.10;2.90;;;16.00;55.90;;;;;;5080873;28;20465;-83
2022/11/23 02:58:17;;;;;;;3.80;3.13;;;16.00;55.90;;;;;;5085606;28;20471;-84
2022/11/23 03:00:47;;;;;;;3.67;2.70;;;16.00;55.90;;;;;;5082255;28;20452;-87
2022/11/23 03:03:15;;;;;;;3.40;3.00;;;16.00;55.90;;;;;;5084580;28;20457;-84
2022/11/23 03:05:43;;;;;;;3.73;3.33;;;16.00;55.80;;;;;;5089090;28;20475;-85
2022/11/23 03:08:11;;;;;;;4.47;3.00;;;16.00;55.90;;;;;;5083465;28;20612;-82
2022/11/23 03:10:40;;;;;;;4.30;2.90;;;16.00;55.90;;;;;;5082764;28;20461;-86
2022/11/23 03:13:08;;;;;;;3.23;3.03;;;16.00;55.90;;;;;;5091881;28;20450;-83
2022/11/23 03:15:36;;;;;;;3.70;2.97;;;16.00;55.90;;;;;;5082348;28;20461;-84
2022/11/23 03:18:05;;;;;;;5.23;3.33;;;16.00;55.90;;;;;;5074490;28;20469;-87
2022/11/23 03:20:33;;;;;;;7.93;3.27;;;16.00;55.80;;;;;;5083823;28;20479;-87
2022/11/23 03:23:02;;;;;;;4.50;3.07;;;16.00;55.90;;;;;;5081730;28;20460;-83
2022/11/23 03:25:30;;;;;;;3.13;2.63;;;16.00;55.80;;;;;;5081836;28;20473;-83
2022/11/23 03:27:58;;;;;;;3.20;3.00;;;16.00;55.90;;;;;;5063952;28;20453;-85
2022/11/23 03:30:26;;;;;;;2.73;2.53;;;16.00;55.90;;;;;;5059738;28;20453;-84
2022/11/23 03:32:54;;;;;;;3.00;2.80;;;16.00;55.90;;;;;;5066347;28;20454;-83
2022/11/23 03:35:23;;;;;;;2.50;2.30;;;16.00;55.90;;;;;;5070581;28;20469;-84
2022/11/23 03:37:52;;;;;;;5.17;3.30;;;16.00;55.90;;;;;;5076768;28;20465;-85
2022/11/23 03:40:20;;;;;;;6.93;3.30;;;16.00;55.90;;;;;;5065336;28;20461;-85
2022/11/23 03:42:48;;;;;;;2.93;2.70;;;16.00;55.80;;;;;;5085103;28;20461;-82
2022/11/23 03:45:16;;;;;;;6.57;3.07;;;16.00;55.90;;;;;;5076681;28;20434;-83
2022/11/23 03:47:44;;;;;;;4.23;2.70;;;16.00;55.80;;;;;;5064522;28;20449;-84
2022/11/23 03:50:12;;;;;;;3.10;2.80;;;16.00;55.80;;;;;;5060746;28;20442;-84
2022/11/23 03:52:42;;;;;;;3.83;2.80;;;16.00;55.80;;;;;;5080946;28;20453;-86
2022/11/23 03:55:10;;;;;;;5.47;2.93;;;16.00;55.80;;;;;;5059117;28;20459;-84
2022/11/23 03:57:39;;;;;;;3.00;2.80;;;16.00;55.80;;;;;;5058093;28;20467;-83
2022/11/23 04:00:08;;;;;;;3.07;2.77;;;16.00;55.80;;;;;;5062270;28;20451;-84
2022/11/23 04:02:36;;;;;;;2.87;2.60;;;16.00;55.90;;;;;;5070505;28;20473;-85
2022/11/23 04:05:04;;;;;;;2.73;2.53;;;16.00;55.90;;;;;;5068238;28;20455;-84
2022/11/23 04:07:33;;;;;;;2.97;2.70;;;16.00;56.00;;;;;;5061250;28;20443;-84
2022/11/23 04:10:02;;;;;;;2.80;2.60;;;16.00;56.00;;;;;;5062321;28;20450;-83
2022/11/23 04:12:30;;;;;;;2.40;2.20;;;16.00;55.90;;;;;;5064300;28;20451;-85
2022/11/23 04:14:59;;;;;;;2.90;2.47;;;16.00;55.90;;;;;;5073595;28;20454;-85
2022/11/23 04:17:27;;;;;;;2.50;2.30;;;16.00;56.00;;;;;;5067611;28;20470;-85
2022/11/23 04:19:55;;;;;;;3.10;2.80;;;16.00;55.90;;;;;;5073488;28;20460;-83
2022/11/23 04:22:23;;;;;;;2.70;2.50;;;16.00;55.90;;;;;;5063014;28;20463;-85
2022/11/23 04:24:51;;;;;;;3.00;2.70;;;16.00;56.00;;;;;;5073468;28;20457;-83
2022/11/23 04:27:21;;;;;;;2.83;2.60;;;16.00;56.00;;;;;;5071525;28;20470;-84
2022/11/23 04:29:49;;;;;;;2.37;2.17;;;16.00;55.90;;;;;;5068761;28;20454;-84
2022/11/23 04:32:17;;;;;;;4.40;2.63;;;16.00;56.00;;;;;;5074594;28;20450;-88
2022/11/23 04:34:44;;;;;;;2.57;2.37;;;16.00;55.90;;;;;;5085680;28;20442;-90
2022/11/23 04:37:12;;;;;;;2.87;2.60;;;16.00;55.90;;;;;;5094979;28;20468;-89
2022/11/23 04:39:41;;;;;;;3.00;2.70;;;16.10;55.90;;;;;;5093302;28;20445;-88
2022/11/23 04:42:09;;;;;;;3.83;2.20;;;16.00;56.00;;;;;;5089647;28;20545;-86
2022/11/23 04:44:38;;;;;;;2.43;2.33;;;16.00;56.00;;;;;;5096045;28;20446;-87
2022/11/23 04:47:06;;;;;;;3.90;2.70;;;16.00;55.90;;;;;;5078502;28;20454;-89
2022/11/23 04:49:34;;;;;;;2.53;2.33;;;16.00;55.90;;;;;;5079121;28;20446;-90
2022/11/23 04:52:02;;;;;;;3.10;2.40;;;16.00;56.00;;;;;;5088562;28;20454;-89
2022/11/23 04:54:31;;;;;;;2.20;2.10;;;16.00;56.00;;;;;;5093564;28;20444;-88
2022/11/23 04:56:59;;;;;;;2.40;2.30;;;16.00;56.00;;;;;;5094656;28;20461;-88
2022/11/23 04:59:27;;;;;;;3.33;2.33;;;16.00;56.00;;;;;;5088775;28;20488;-85
2022/11/23 05:01:57;;;;;;;2.27;2.10;;;16.00;55.90;;;;;;5086881;28;20450;-87
2022/11/23 05:04:25;;;;;;;2.30;2.20;;;16.00;56.10;;;;;;5087242;28;20449;-85
2022/11/23 05:06:53;;;;;;;2.17;2.07;;;16.00;56.10;;;;;;5080754;28;20467;-88
2022/11/23 05:09:21;;;;;;;2.43;2.33;;;16.00;56.00;;;;;;5097957;28;20436;-87
2022/11/23 05:11:49;;;;;;;2.73;2.20;;;16.00;56.00;;;;;;5087187;28;20431;-84
2022/11/23 05:14:17;;;;;;;3.97;2.60;;;16.00;55.90;;;;;;5085272;28;20453;-83
2022/11/23 05:16:46;;;;;;;2.70;2.50;;;16.10;56.00;;;;;;5080461;28;20442;-88
2022/11/23 05:19:15;;;;;;;4.30;2.47;;;16.00;56.00;;;;;;5078127;28;20538;-83
2022/11/23 05:21:43;;;;;;;2.10;2.00;;;16.10;56.00;;;;;;5070402;28;20514;-86
2022/11/23 05:24:11;;;;;;;2.70;2.33;;;16.00;56.00;;;;;;5068964;28;20477;-82
2022/11/23 05:26:39;;;;;;;2.83;2.63;;;16.00;56.00;;;;;;5074793;28;20462;-84
2022/11/23 05:29:07;;;;;;;2.50;2.30;;;16.10;56.00;;;;;;5081500;28;20438;-85
2022/11/23 05:31:36;;;;;;;2.83;2.37;;;16.00;55.90;;;;;;5076365;28;20453;-83
2022/11/23 05:34:04;;;;;;;2.73;2.53;;;16.10;56.00;;;;;;5077450;28;20473;-83
2022/11/23 05:36:33;;;;;;;2.60;2.40;;;16.00;56.00;;;;;;5075217;28;20473;-83
2022/11/23 05:39:07;;;;;;;2.77;2.57;;;16.10;56.00;;;;;;5081401;28;20469;-84
2022/11/23 05:41:35;;;;;;;2.10;2.00;;;16.00;56.10;;;;;;5075927;28;20454;-83
2022/11/23 05:44:03;;;;;;;2.40;2.20;;;16.00;56.00;;;;;;5081103;28;20460;-84
2022/11/23 05:46:32;;;;;;;2.70;2.50;;;16.00;56.00;;;;;;5069215;28;20473;-84
2022/11/23 05:49:00;;;;;;;3.30;2.10;;;16.10;56.20;;;;;;5060432;28;20442;-84
2022/11/23 05:51:28;;;;;;;4.47;2.47;;;16.10;56.00;;;;;;5071004;28;20449;-85
2022/11/23 05:53:57;;;;;;;4.87;2.77;;;16.10;56.10;;;;;;5066975;28;20464;-85
2022/11/23 05:56:25;;;;;;;2.93;2.60;;;16.10;56.10;;;;;;5074614;28;20481;-85
2022/11/23 05:58:55;;;;;;;2.70;2.50;;;16.10;56.10;;;;;;5073680;28;20469;-86
2022/11/23 06:01:23;;;;;;;3.03;2.60;;;16.10;56.10;;;;;;5072891;28;20461;-84
2022/11/23 06:03:51;;;;;;;3.23;2.90;;;16.10;56.20;;;;;;5068656;28;20460;-85
2022/11/23 06:06:19;;;;;;;2.40;2.20;;;16.00;56.20;;;;;;5069475;28;20467;-85
2022/11/23 06:08:47;;;;;;;3.33;2.60;;;16.00;56.10;;;;;;5071519;28;20949;-85
2022/11/23 06:11:17;;;;;;;2.90;2.70;;;16.10;56.20;;;;;;5069919;28;20450;-85
2022/11/23 06:13:46;;;;;;;3.00;2.80;;;16.00;56.10;;;;;;5073655;28;20454;-87
2022/11/23 06:16:15;;;;;;;2.67;2.47;;;16.10;56.10;;;;;;5068681;28;20473;-85
2022/11/23 06:18:43;;;;;;;2.60;2.40;;;16.10;56.10;;;;;;5065059;28;20469;-87
2022/11/23 06:21:11;;;;;;;3.07;2.10;;;16.00;56.10;;;;;;5074301;28;20537;-85
2022/11/23 06:23:40;;;;;;;2.60;2.40;;;16.00;56.10;;;;;;5068133;28;20458;-87
2022/11/23 06:26:08;;;;;;;2.40;2.30;;;16.10;56.20;;;;;;5080582;28;20480;-86
2022/11/23 06:28:38;;;;;;;2.50;2.27;;;16.10;56.20;;;;;;5071943;28;20450;-85
2022/11/23 06:31:06;;;;;;;2.57;2.40;;;16.10;56.10;;;;;;5072016;28;20449;-84
2022/11/23 06:33:35;;;;;;;2.57;2.40;;;16.10;56.10;;;;;;5074035;28;20452;-85
2022/11/23 06:36:03;;;;;;;2.53;2.33;;;16.10;56.20;;;;;;5073075;28;20465;-82
2022/11/23 06:38:31;;;;;;;2.87;2.07;;;16.10;56.00;;;;;;5079217;28;20441;-85
2022/11/23 06:41:00;;;;;;;2.60;2.40;;;16.10;56.10;;;;;;5064944;28;20465;-85
2022/11/23 06:43:28;;;;;;;3.03;2.83;;;16.10;56.20;;;;;;5076169;28;20477;-85
2022/11/23 06:45:57;;;;;;;3.30;2.50;;;16.10;56.20;;;;;;5067327;28;20478;-84
2022/11/23 06:48:25;;;;;;;2.57;2.43;;;16.10;56.20;;;;;;5071558;28;20454;-86
2022/11/23 06:50:54;;;;;;;2.60;2.40;;;16.10;56.20;;;;;;5075074;28;20475;-86
2022/11/23 06:53:22;;;;;;;3.00;2.80;;;16.10;56.10;;;;;;5078989;28;20454;-86
2022/11/23 06:55:50;;;;;;;2.87;2.60;;;16.10;56.10;;;;;;5074493;28;20465;-85
2022/11/23 06:58:22;;;;;;;3.10;2.43;;;16.10;56.20;;;;;;5068938;28;20450;-85
2022/11/23 07:00:50;;;;;;;3.13;2.40;;;16.10;56.20;;;;;;5072472;28;20478;-84
2022/11/23 07:03:21;;;;;;;4.37;2.80;;;16.10;56.20;;;;;;5058321;28;20457;-86
2022/11/23 07:05:49;;;;;;;3.07;2.70;;;16.10;56.10;;;;;;5074285;28;21060;-83
2022/11/23 07:08:17;;;;;;;3.40;2.70;;;16.00;56.10;;;;;;5055943;28;20453;-86
2022/11/23 07:10:45;;;;;;;2.97;2.70;;;16.10;56.20;;;;;;5062484;28;20447;-86
2022/11/23 07:13:13;;;;;;;4.87;2.67;;;16.00;56.10;;;;;;5055886;28;20450;-86
2022/11/23 07:15:41;;;;;;;3.80;2.60;;;16.10;56.10;;;;;;5060402;28;20544;-84
2022/11/23 07:18:09;;;;;;;2.90;2.70;;;16.10;56.20;;;;;;5070990;28;20457;-85
2022/11/23 07:20:39;;;;;;;4.33;2.73;;;16.00;56.20;;;;;;5068619;28;20474;-87
2022/11/23 07:23:08;;;;;;;3.93;2.70;;;16.10;56.30;;;;;;5074217;28;20468;-85
2022/11/23 07:25:37;;;;;;;3.00;2.80;;;16.10;56.30;;;;;;5074586;28;20477;-84
2022/11/23 07:28:05;;;;;;;2.73;2.50;;;16.10;56.30;;;;;;5078567;28;20460;-84
2022/11/23 07:30:34;;;;;;;2.70;2.50;;;16.10;56.20;;;;;;5076340;28;20446;-85
2022/11/23 07:33:02;;;;;;;4.00;3.00;;;16.00;56.20;;;;;;5078846;28;20522;-85
2022/11/23 07:35:30;;;;;;;2.80;2.50;;;16.10;56.30;;;;;;5074142;28;20479;-85
2022/11/23 07:38:00;;;;;;;2.60;2.43;;;16.10;56.20;;;;;;5084426;28;20460;-86
2022/11/23 07:40:29;;;;;;;2.97;2.67;;;16.00;56.20;;;;;;5077983;28;20478;-83
2022/11/23 07:42:59;;;;;;;3.70;2.40;;;16.10;56.20;;;;;;5071252;28;20462;-84
2022/11/23 07:45:27;;;;;;;2.90;2.70;;;16.10;56.20;;;;;;5078398;28;20474;-87
2022/11/23 07:47:59;;;;;;;4.13;2.60;;;16.10;56.20;;;;;;5076764;28;20706;-86
2022/11/23 07:50:27;;;;;;;3.23;2.77;;;16.10;56.20;;;;;;5069089;28;20518;-86
2022/11/23 07:52:56;;;;;;;2.50;2.30;;;16.10;56.20;;;;;;5080034;28;20470;-83
2022/11/23 07:55:25;;;;;;;2.80;2.60;;;16.10;56.20;;;;;;5079079;28;20863;-85
2022/11/23 07:57:53;;;;;;;3.43;2.20;;;16.10;56.20;;;;;;5071431;28;20460;-85
2022/11/23 08:00:22;;;;;;;7.30;2.70;;;16.10;56.20;;;;;;5070187;28;20466;-85
2022/11/23 08:02:50;;;;;;;2.87;2.57;;;16.10;56.30;;;;;;5074927;28;20473;-86
2022/11/23 08:05:38;;;;;;;5.00;2.57;;;16.10;56.20;;;;;;5078777;28;20503;-85
2022/11/23 08:08:06;;;;;;;6.00;2.33;;;16.20;56.20;;;;;;5077518;28;20450;-85
2022/11/23 08:10:36;;;;;;;2.70;2.33;;;16.10;56.20;;;;;;5076876;28;20509;-87
2022/11/23 08:13:11;;;;;;;2.67;2.43;;;16.10;56.20;;;;;;5072726;28;20453;-86
2022/11/23 08:15:39;;;;;;;4.00;2.57;;;16.20;56.30;;;;;;5065219;28;20476;-83
2022/11/23 08:18:09;;;;;;;7.10;2.67;;;16.20;56.40;;;;;;5076445;28;20460;-85
2022/11/23 08:20:37;;;;;;;3.40;2.70;;;16.20;56.20;;;;;;5073932;28;20466;-85
2022/11/23 08:23:05;;;;;;;2.87;2.37;;;16.20;56.20;;;;;;5071768;28;20454;-85
2022/11/23 08:25:33;;;;;;;2.80;2.30;;;16.20;56.20;;;;;;5065466;28;20477;-86
2022/11/23 08:28:04;;;;;;;2.47;2.27;;;16.20;56.10;;;;;;5078547;28;20455;-85
2022/11/23 08:30:32;;;;;;;2.93;2.60;;;16.20;56.10;;;;;;5079329;28;20450;-83
2022/11/23 08:33:02;;;;;;;2.93;2.27;;;16.30;56.30;;;;;;5075459;28;20460;-84
2022/11/23 08:35:30;;;;;;;3.03;2.73;;;16.20;56.20;;;;;;5069093;28;20483;-84
2022/11/23 08:37:58;;;;;;;2.90;2.07;;;16.20;56.20;;;;;;5071972;28;20460;-84
2022/11/23 08:40:26;;;;;;;6.20;2.93;;;16.20;56.20;;;;;;5070076;28;20465;-83
2022/11/23 08:42:55;;;;;;;3.13;2.60;;;16.30;56.10;;;;;;5068345;28;20458;-83
2022/11/23 08:45:24;;;;;;;7.63;2.30;;;16.20;56.70;;;;;;5068753;28;20497;-83
2022/11/23 08:47:52;;;;;;;5.83;2.90;;;16.20;56.90;;;;;;5065363;28;20465;-81
2022/11/23 08:50:21;;;;;;;3.80;2.50;;;16.30;57.00;;;;;;5066779;28;20951;-82
2022/11/23 08:52:54;;;;;;;3.73;2.20;;;16.30;56.90;;;;;;5069317;28;20450;-83
2022/11/23 08:55:22;;;;;;;3.37;2.73;;;16.30;56.80;;;;;;5080628;28;20464;-87
2022/11/23 08:57:50;;;;;;;3.67;2.40;;;16.30;56.90;;;;;;5078785;28;20456;-84
2022/11/23 09:00:20;;;;;;;6.10;3.30;;;16.30;56.80;;;;;;5079232;28;20481;-84
2022/11/23 09:02:49;;;;;;;4.80;2.80;;;16.30;56.80;;;;;;5079773;28;20446;-82
2022/11/23 09:05:18;;;;;;;8.50;3.00;;;16.30;56.80;;;;;;5079000;28;20452;-82
2022/11/23 09:07:46;;;;;;;5.23;2.77;;;16.30;56.80;;;;;;5081524;28;20469;-83
2022/11/23 09:10:14;;;;;;;5.07;3.20;;;16.40;56.80;;;;;;5063642;28;20469;-79
2022/11/23 09:12:45;;;;;;;2.83;2.60;;;16.40;56.80;;;;;;5063795;28;20484;-81
2022/11/23 09:15:13;;;;;;;5.93;2.93;;;16.40;56.70;;;;;;5078410;28;20457;-80
2022/11/23 09:17:41;;;;;;;4.27;2.87;;;16.40;56.70;;;;;;5083250;28;20448;-81
2022/11/23 09:20:11;;;;;;;4.77;3.07;;;16.40;56.70;;;;;;5080073;28;20470;-80
2022/11/23 09:22:40;;;;;;;3.07;2.60;;;16.40;56.70;;;;;;5065857;28;20437;-79
2022/11/23 09:25:09;;;;;;;4.73;2.50;;;16.50;56.80;;;;;;5080733;28;20446;-80
2022/11/23 09:27:37;;;;;;;3.27;2.40;;;16.60;56.90;;;;;;5081785;28;20473;-81
2022/11/23 09:30:06;;;;;;;3.47;2.70;;;16.60;56.80;;;;;;5089403;28;20449;-80
2022/11/23 09:32:34;;;;;;;2.80;2.53;;;16.80;56.80;;;;;;5083731;28;20444;-82
2022/11/23 09:35:02;;;;;;;6.33;3.13;;;16.90;56.60;;;;;;5083976;28;20453;-81
2022/11/23 09:37:32;;;;;;;5.50;2.70;;;17.00;56.60;;;;;;5082224;28;20454;-80
2022/11/23 09:40:00;;;;;;;3.03;2.77;;;17.00;56.50;;;;;;5084236;28;20430;-81
2022/11/23 09:42:44;;;;;;;3.07;2.80;;;17.10;56.40;;;;;;5084470;28;20481;-82
2022/11/23 09:45:19;;;;;;;5.17;3.10;;;17.10;56.40;;;;;;5083213;28;20470;-81
2022/11/23 09:48:11;;;;;;;2.80;2.40;;;17.10;56.40;;;;;;5082148;28;20641;-79
2022/11/23 09:50:45;;;;;;;4.50;2.83;;;17.20;56.40;;;;;;5068548;28;20439;-80
2022/11/23 09:53:16;;;;;;;4.60;2.70;;;17.20;56.30;;;;;;5063889;28;20465;-80
2022/11/23 09:55:44;;;;;;;3.80;2.80;;;17.30;56.50;;;;;;5084777;28;20476;-83
2022/11/23 09:58:14;;;;;;;4.80;2.60;;;17.30;56.40;;;;;;5081704;28;20452;-82
2022/11/23 10:00:44;;;;;;;9.20;3.10;;;17.30;56.40;;;;;;5081768;28;20473;-81
2022/11/23 10:03:14;;;;;;;4.23;3.20;;;17.20;56.30;;;;;;5083557;28;20433;-83
2022/11/23 10:05:43;;;;;;;5.13;2.60;;;17.20;56.50;;;;;;5083404;28;20521;-82
2022/11/23 10:08:17;;;;;;;3.37;3.07;;;17.10;56.50;;;;;;5083816;28;20507;-84
2022/11/23 10:10:47;;;;;;;3.37;3.10;;;17.20;56.60;;;;;;5077228;28;20455;-83
2022/11/23 10:13:28;;;;;;;4.60;3.10;;;17.10;56.60;;;;;;5079281;28;20446;-80
2022/11/23 10:16:04;;;;;;;3.17;2.97;;;17.20;56.70;;;;;;5082172;28;20467;-82
2022/11/23 10:18:36;;;;;;;5.20;3.50;;;17.20;56.70;;;;;;5068678;28;20449;-83
2022/11/23 10:21:09;;;;;;;2.83;2.67;;;17.20;56.80;;;;;;5079401;28;20469;-84
2022/11/23 10:23:52;;;;;;;3.70;3.40;;;17.30;56.80;;;;;;5085491;28;20453;-81
2022/11/23 10:26:21;;;;;;;9.90;3.40;;;17.30;56.70;;;;;;5081309;28;20556;-82
2022/11/23 10:28:49;;;;;;;3.93;3.40;;;17.30;56.70;;;;;;5079929;28;20437;-81
2022/11/23 10:31:18;;;;;;;3.87;3.47;;;17.30;56.70;;;;;;5080703;28;20451;-82
2022/11/23 10:33:56;;;;;;;4.00;3.60;;;17.20;56.80;;;;;;5080392;28;20472;-81
2022/11/23 10:36:24;;;;;;;7.87;3.87;;;17.20;56.80;;;;;;5078879;28;20469;-79
2022/11/23 10:38:55;;;;;;;5.37;3.23;;;17.20;56.90;;;;;;5080566;28;20445;-80
2022/11/23 10:41:23;;;;;;;9.27;4.03;;;17.20;57.00;;;;;;5078371;28;20481;-79
2022/11/23 10:43:56;;;;;;;6.07;3.87;;;17.20;57.00;;;;;;5063292;28;20445;-79
2022/11/23 10:46:26;;;;;;;5.00;3.20;;;17.20;57.00;;;;;;5081296;28;20492;-82
2022/11/23 10:48:55;;;;;;;4.00;3.70;;;17.10;57.10;;;;;;5080704;28;20445;-79
2022/11/23 10:51:27;;;;;;;4.50;3.80;;;17.30;57.40;;;;;;5081998;28;20445;-81
2022/11/23 10:53:58;;;;;;;3.80;2.90;;;17.40;57.10;;;;;;5085385;28;20442;-80
2022/11/23 10:56:32;;;;;;;6.50;3.70;;;17.40;56.80;;;;;;5084481;28;20472;-81
2022/11/23 10:59:00;;;;;;;3.93;3.60;;;17.50;56.80;;;;;;5082607;28;20484;-78
2022/11/23 11:01:28;;;;;;;5.27;3.40;;;17.50;56.70;;;;;;5080568;28;20473;-80
2022/11/23 11:04:01;;;;;;;5.93;3.97;;;17.50;56.90;;;;;;5080344;28;20433;-78
2022/11/23 11:06:33;;;;;;;6.43;3.80;;;17.60;56.80;;;;;;5083672;28;20467;-82
2022/11/23 11:09:03;;;;;;;3.73;3.43;;;17.60;56.60;;;;;;5082943;28;20438;-79
2022/11/23 11:11:37;;;;;;;4.20;3.40;;;17.50;56.50;;;;;;5085242;28;20467;-80
2022/11/23 11:14:06;;;;;;;5.37;3.97;;;17.50;56.60;;;;;;5083161;28;20490;-82
2022/11/23 11:16:37;;;;;;;5.87;4.20;;;17.40;56.60;;;;;;5081199;28;20472;-81
2022/11/23 11:19:25;;;;;;;7.60;3.63;;;17.40;56.80;;;;;;5082690;28;20528;-79
2022/11/23 11:21:56;;;;;;;4.17;3.70;;;17.50;56.90;;;;;;5067817;28;20477;-81
2022/11/23 11:24:28;;;;;;;5.17;4.03;;;17.40;56.90;;;;;;5083326;28;20449;-80
2022/11/23 11:26:58;;;;;;;7.60;3.80;;;17.40;56.80;;;;;;5084039;28;20465;-82
2022/11/23 11:29:31;;;;;;;6.23;3.60;;;17.40;57.00;;;;;;5083438;28;20477;-80
2022/11/23 11:32:07;;;;;;;6.07;4.20;;;17.50;57.00;;;;;;5084249;28;20491;-81
2022/11/23 11:34:38;;;;;;;3.80;3.50;;;17.50;56.80;;;;;;5084621;28;20459;-81
2022/11/23 11:37:12;;;;;;;4.30;3.50;;;17.50;56.80;;;;;;5083259;28;20457;-80
2022/11/23 11:39:44;;;;;;;6.53;3.87;;;17.50;56.90;;;;;;5084369;28;20437;-80
2022/11/23 11:42:16;;;;;;;7.03;3.90;;;17.50;56.80;;;;;;5074091;28;20474;-82
2022/11/23 11:44:44;;;;;;;5.30;3.60;;;17.50;56.80;;;;;;5064295;28;20434;-82
2022/11/23 11:47:19;;;;;;;4.93;3.63;;;17.50;56.90;;;;;;5062689;28;20465;-82
2022/11/23 11:49:46;;;;;;;6.50;3.97;;;17.60;57.00;;;;;;5081951;28;20433;-81
2022/11/23 11:52:17;;;;;;;8.63;4.47;;;17.70;56.90;;;;;;5085581;28;20449;-81
2022/11/23 11:54:50;;;;;;;4.63;3.93;;;17.80;56.80;;;;;;5086255;28;20548;-82
2022/11/23 11:57:20;;;;;;;4.97;3.80;;;17.90;56.60;;;;;;5086861;28;20469;-82
2022/11/23 11:59:53;;;;;;;5.27;3.73;;;18.00;56.70;;;;;;5087654;28;20446;-78
2022/11/23 12:02:24;;;;;;;8.27;4.00;;;18.10;56.30;;;;;;5083386;28;20471;-82
2022/11/23 12:04:59;;;;;;;8.03;4.40;;;18.30;56.30;;;;;;5084700;28;20433;-80
2022/11/23 12:07:33;;;;;;;5.97;3.90;;;18.40;56.10;;;;;;5085093;28;20449;-84
2022/11/23 12:10:05;;;;;;;6.97;3.87;;;18.50;55.90;;;;;;5087279;28;20442;-80
2022/11/23 12:12:35;;;;;;;5.13;3.93;;;18.60;55.70;;;;;;5087150;28;20450;-80
2022/11/23 12:15:04;;;;;;;7.37;4.00;;;18.60;55.50;;;;;;5085993;28;20448;-81
2022/11/23 12:18:11;;;;;;;8.80;4.30;;;18.70;55.60;;;;;;5080609;28;20418;-81
2022/11/23 12:20:43;;;;;;;6.40;4.17;;;18.70;55.50;;;;;;5084776;28;20438;-80
2022/11/23 12:23:17;;;;;;;5.03;4.30;;;18.70;55.70;;;;;;5086271;28;20469;-81
2022/11/23 12:25:50;;;;;;;5.93;4.43;;;18.70;55.60;;;;;;5086288;28;20551;-81
2022/11/23 12:28:30;;;;;;;4.53;4.13;;;18.80;55.70;;;;;;5086692;28;20460;-78
2022/11/23 12:31:02;;;;;;;5.20;4.20;;;18.90;55.70;;;;;;5090133;28;20430;-81
2022/11/23 12:33:52;;;;;;;6.90;4.07;;;19.00;55.60;;;;;;5084914;28;20444;-82
2022/11/23 12:36:32;;;;;;;5.23;4.27;;;19.00;55.50;;;;;;5079149;28;20488;-79
2022/11/23 12:39:04;;;;;;;5.40;4.03;;;19.20;55.50;;;;;;5086346;28;20452;-82
2022/11/23 12:41:39;;;;;;;8.03;3.80;;;19.20;55.20;;;;;;5085371;28;20454;-79
2022/11/23 12:44:38;;;;;;;8.00;4.17;;;19.30;55.20;;;;;;5086280;28;20442;-81
2022/11/23 12:47:10;;;;;;;9.50;4.40;;;19.40;55.10;;;;;;5087476;28;20468;-81
2022/11/23 12:49:45;;;;;;;6.07;4.27;;;19.60;55.40;;;;;;5080548;28;20532;-82
2022/11/23 12:52:25;;;;;;;5.57;4.20;;;19.80;55.30;;;;;;5083848;28;20438;-82
2022/11/23 12:54:59;;;;;;;4.60;3.73;;;20.00;55.10;;;;;;5066040;28;20446;-82
2022/11/23 12:57:31;;;;;;;3.87;3.30;;;20.30;54.80;;;;;;5062746;28;20442;-77
2022/11/23 13:00:01;;;;;;;4.97;3.97;;;20.70;54.80;;;;;;5057059;28;20518;-79